createdAt,value
2023-05-14T00:00:41.695Z,0.00
2023-05-14T00:01:41.731Z,0.00
2023-05-14T00:02:41.808Z,0.00
2023-05-14T00:03:41.882Z,0.00
2023-05-14T00:04:41.895Z,0.00
2023-05-14T00:05:41.856Z,0.00
2023-05-14T00:06:41.855Z,0.00
2023-05-14T00:07:41.895Z,0.00
2023-05-14T00:08:41.908Z,0.00
2023-05-14T00:09:41.945Z,0.00
2023-05-14T00:10:41.973Z,0.00
2023-05-14T00:11:42.004Z,0.00
2023-05-14T00:12:42.020Z,0.00
2023-05-14T00:13:42.047Z,0.00
2023-05-14T00:14:42.078Z,0.00
2023-05-14T00:15:42.131Z,0.00
2023-05-14T00:16:42.125Z,0.00
2023-05-14T00:17:42.182Z,0.00
2023-05-14T00:18:42.251Z,0.00
2023-05-14T00:19:42.204Z,0.00
2023-05-14T00:20:42.233Z,0.00
2023-05-14T00:21:42.278Z,0.00
2023-05-14T00:22:42.285Z,0.00
2023-05-14T00:23:42.310Z,0.00
2023-05-14T00:24:42.341Z,0.00
2023-05-14T00:25:42.369Z,0.00
2023-05-14T00:26:42.391Z,0.00
2023-05-14T00:27:42.420Z,0.00
2023-05-14T00:28:42.448Z,0.00
2023-05-14T00:29:42.515Z,0.00
2023-05-14T00:30:42.500Z,0.00
2023-05-14T00:31:42.624Z,0.00
2023-05-14T00:32:42.576Z,0.00
2023-05-14T00:33:42.581Z,0.00
2023-05-14T00:34:42.606Z,0.00
2023-05-14T00:35:42.635Z,0.00
2023-05-14T00:36:42.662Z,0.00
2023-05-14T00:37:42.711Z,0.00
2023-05-14T00:38:42.718Z,0.00
2023-05-14T00:39:42.742Z,0.00
2023-05-14T00:40:42.768Z,0.00
2023-05-14T00:41:42.800Z,0.00
2023-05-14T00:42:42.820Z,0.00
2023-05-14T00:43:42.849Z,0.00
2023-05-14T00:44:42.887Z,0.00
2023-05-14T00:45:42.906Z,0.00
2023-05-14T00:46:43.001Z,0.00
2023-05-14T00:47:42.984Z,0.00
2023-05-14T00:48:42.981Z,0.00
2023-05-14T00:49:43.016Z,0.00
2023-05-14T00:50:43.050Z,0.00
2023-05-14T00:51:43.073Z,0.00
2023-05-14T00:52:43.092Z,0.00
2023-05-14T00:53:43.141Z,0.00
2023-05-14T00:54:43.146Z,0.00
2023-05-14T00:55:43.172Z,0.00
2023-05-14T00:56:43.197Z,0.00
2023-05-14T00:57:43.229Z,0.00
2023-05-14T00:58:43.266Z,0.00
2023-05-14T00:59:43.277Z,0.00
2023-05-14T01:00:43.408Z,0.00
2023-05-14T01:01:43.330Z,0.00
2023-05-14T01:02:43.567Z,0.00
2023-05-14T01:03:43.468Z,0.00
2023-05-14T01:04:43.414Z,0.00
2023-05-14T01:05:43.442Z,0.00
2023-05-14T01:06:43.461Z,0.00
2023-05-14T01:07:43.489Z,0.00
2023-05-14T01:08:43.515Z,0.00
2023-05-14T01:09:43.577Z,0.00
2023-05-14T01:10:43.567Z,0.00
2023-05-14T01:11:43.598Z,0.00
2023-05-14T01:12:43.621Z,0.00
2023-05-14T01:13:43.653Z,0.00
2023-05-14T01:14:43.676Z,0.00
2023-05-14T01:15:43.701Z,0.00
2023-05-14T01:16:43.794Z,0.00
2023-05-14T01:17:43.786Z,0.00
2023-05-14T01:18:43.860Z,0.00
2023-05-14T01:19:43.859Z,0.00
2023-05-14T01:20:43.833Z,0.00
2023-05-14T01:21:43.873Z,0.00
2023-05-14T01:22:43.886Z,0.00
2023-05-14T01:23:43.919Z,0.00
2023-05-14T01:24:43.942Z,0.00
2023-05-14T01:25:43.989Z,0.00
2023-05-14T01:26:43.991Z,0.00
2023-05-14T01:27:44.018Z,0.00
2023-05-14T01:28:44.046Z,0.00
2023-05-14T01:29:44.071Z,0.00
2023-05-14T01:30:44.097Z,0.00
2023-05-14T01:31:44.203Z,0.00
2023-05-14T01:32:44.153Z,0.00
2023-05-14T01:33:44.177Z,0.00
2023-05-14T01:34:44.203Z,0.00
2023-05-14T01:35:44.234Z,0.00
2023-05-14T01:36:44.273Z,0.00
2023-05-14T01:37:44.336Z,0.00
2023-05-14T01:38:44.306Z,0.00
2023-05-14T01:39:44.336Z,0.00
2023-05-14T01:40:44.357Z,0.00
2023-05-14T01:41:44.407Z,0.00
2023-05-14T01:42:44.453Z,0.00
2023-05-14T01:43:45.444Z,0.00
2023-05-14T01:44:45.269Z,0.00
2023-05-14T01:45:44.542Z,0.00
2023-05-14T01:46:44.559Z,0.00
2023-05-14T01:47:44.555Z,0.00
2023-05-14T01:48:44.559Z,0.00
2023-05-14T01:49:44.586Z,0.00
2023-05-14T01:50:44.610Z,0.00
2023-05-14T01:51:44.657Z,0.00
2023-05-14T01:52:44.677Z,0.00
2023-05-14T01:53:44.693Z,0.00
2023-05-14T01:54:44.714Z,0.00
2023-05-14T01:55:44.744Z,0.00
2023-05-14T01:56:44.771Z,0.00
2023-05-14T01:57:44.816Z,0.00
2023-05-14T01:58:51.139Z,0.00
2023-05-14T01:59:44.848Z,0.00
2023-05-14T02:00:44.872Z,0.00
2023-05-14T02:01:44.905Z,0.00
2023-05-14T02:02:44.975Z,0.00
2023-05-14T02:03:45.040Z,0.00
2023-05-14T02:04:44.989Z,0.00
2023-05-14T02:06:32.555Z,0.00
2023-05-14T02:11:27.837Z,0.00
2023-05-14T02:12:27.856Z,0.00
2023-05-14T02:13:27.903Z,0.00
2023-05-14T02:14:27.905Z,0.00
2023-05-14T02:15:27.951Z,0.00
2023-05-14T02:16:29.455Z,0.00
2023-05-14T02:17:28.071Z,0.00
2023-05-14T02:19:15.758Z,0.00
2023-05-14T02:20:15.592Z,0.00
2023-05-14T02:21:15.624Z,0.00
2023-05-14T02:22:18.568Z,0.00
2023-05-14T02:23:15.666Z,0.00
2023-05-14T02:24:19.528Z,0.00
2023-05-14T02:25:15.970Z,0.00
2023-05-14T02:26:15.743Z,0.00
2023-05-14T02:27:16.575Z,0.00
2023-05-14T02:28:15.791Z,0.00
2023-05-14T02:29:15.832Z,0.00
2023-05-14T02:30:15.838Z,0.00
2023-05-14T02:31:17.297Z,0.00
2023-05-14T02:32:15.909Z,0.00
2023-05-14T02:34:08.484Z,0.00
2023-05-14T02:35:08.511Z,0.00
2023-05-14T02:37:48.851Z,0.00
2023-05-14T02:38:49.268Z,0.00
2023-05-14T02:41:46.692Z,0.00
2023-05-14T02:42:49.138Z,0.00
2023-05-14T02:43:46.553Z,0.00
2023-05-14T02:44:46.607Z,0.00
2023-05-14T02:45:46.597Z,0.00
2023-05-14T02:47:39.194Z,0.00
2023-05-14T02:48:39.429Z,0.00
2023-05-14T02:49:39.234Z,0.00
2023-05-14T02:50:39.262Z,0.00
2023-05-14T02:51:39.289Z,0.00
2023-05-14T02:52:39.321Z,0.00
2023-05-14T02:53:39.337Z,0.00
2023-05-14T02:54:39.382Z,0.00
2023-05-14T02:58:39.668Z,0.00
2023-05-14T02:59:39.490Z,0.00
2023-05-14T03:00:39.544Z,0.00
2023-05-14T03:01:39.544Z,0.00
2023-05-14T03:02:39.666Z,0.00
2023-05-14T03:03:39.611Z,0.00
2023-05-14T03:04:39.625Z,0.00
2023-05-14T03:05:39.648Z,4.00
2023-05-14T03:06:39.691Z,4.00
2023-05-14T03:07:39.709Z,0.00
2023-05-14T03:08:39.726Z,0.00
2023-05-14T03:09:39.761Z,4.00
2023-05-14T03:10:39.800Z,4.00
2023-05-14T03:11:39.815Z,4.00
2023-05-14T03:12:39.847Z,4.00
2023-05-14T03:13:39.856Z,4.00
2023-05-14T03:14:40.085Z,8.00
2023-05-14T03:15:40.236Z,8.00
2023-05-14T03:16:40.010Z,8.00
2023-05-14T03:22:40.289Z,20.00
2023-05-14T03:23:40.535Z,20.00
2023-05-14T03:24:40.154Z,24.00
2023-05-14T03:25:40.493Z,28.00
2023-05-14T03:26:40.616Z,32.00
2023-05-14T03:28:40.673Z,44.00
2023-05-14T03:29:40.271Z,52.00
2023-05-14T03:30:40.349Z,56.00
2023-05-14T03:31:40.321Z,64.00
2023-05-14T03:33:53.201Z,80.00
2023-05-14T03:34:54.195Z,88.00
2023-05-14T03:35:53.002Z,100.00
2023-05-14T03:36:53.030Z,112.00
2023-05-14T03:37:53.083Z,124.00
2023-05-14T03:38:55.701Z,140.00
2023-05-14T03:39:53.102Z,156.00
2023-05-14T03:40:53.130Z,168.00
2023-05-14T03:43:30.832Z,212.00
2023-05-14T03:44:30.860Z,232.00
2023-05-14T03:45:30.881Z,256.00
2023-05-14T03:46:30.917Z,280.00
2023-05-14T03:47:31.021Z,304.00
2023-05-14T03:48:31.817Z,332.00
2023-05-14T03:49:31.004Z,360.00
2023-05-14T03:52:00.066Z,436.00
2023-05-14T03:53:02.570Z,472.00
2023-05-14T03:54:41.287Z,536.00
2023-05-14T03:55:41.272Z,576.00
2023-05-14T03:56:41.314Z,620.00
2023-05-14T03:57:41.326Z,660.00
2023-05-14T03:58:41.346Z,708.00
2023-05-14T03:59:41.374Z,752.00
2023-05-14T04:00:41.401Z,804.00
2023-05-14T04:01:41.445Z,852.00
2023-05-14T04:02:41.520Z,904.00
2023-05-14T04:03:41.638Z,960.00
2023-05-14T04:04:41.573Z,1012.00
2023-05-14T04:05:41.542Z,1072.00
2023-05-14T04:06:41.554Z,1132.00
2023-05-14T04:07:41.592Z,1188.00
2023-05-14T04:08:41.612Z,1252.00
2023-05-14T04:09:41.632Z,1312.00
2023-05-14T04:10:41.656Z,1372.00
2023-05-14T04:11:41.683Z,1436.00
2023-05-14T04:12:41.712Z,1496.00
2023-05-14T04:13:41.734Z,1560.00
2023-05-14T04:14:41.760Z,1624.00
2023-05-14T04:15:41.788Z,1688.00
2023-05-14T04:16:41.933Z,1756.00
2023-05-14T04:17:41.906Z,1824.00
2023-05-14T04:18:41.891Z,1888.00
2023-05-14T04:19:41.895Z,1956.00
2023-05-14T04:20:41.935Z,2016.00
2023-05-14T04:21:41.944Z,2084.00
2023-05-14T04:22:41.971Z,2148.00
2023-05-14T04:23:41.998Z,2220.00
2023-05-14T04:24:42.030Z,2288.00
2023-05-14T04:25:42.050Z,2360.00
2023-05-14T04:26:42.086Z,2436.00
2023-05-14T04:27:42.099Z,2516.00
2023-05-14T04:28:42.122Z,2592.00
2023-05-14T04:29:42.151Z,2648.00
2023-05-14T04:30:42.176Z,2752.00
2023-05-14T04:31:42.234Z,2824.00
2023-05-14T04:32:42.277Z,2864.00
2023-05-14T04:33:42.253Z,2928.00
2023-05-14T04:34:42.275Z,3008.00
2023-05-14T04:35:42.304Z,3088.00
2023-05-14T04:36:42.344Z,3172.00
2023-05-14T04:37:42.358Z,3908.00
2023-05-14T04:38:42.384Z,4216.00
2023-05-14T04:39:42.407Z,3756.00
2023-05-14T04:40:42.432Z,3708.00
2023-05-14T04:41:42.468Z,3704.00
2023-05-14T04:42:42.481Z,3676.00
2023-05-14T04:43:42.510Z,3732.00
2023-05-14T04:44:42.535Z,3840.00
2023-05-14T04:45:42.594Z,3980.00
2023-05-14T04:46:42.588Z,4036.00
2023-05-14T04:47:42.657Z,4268.00
2023-05-14T04:48:42.641Z,4420.00
2023-05-14T04:49:42.670Z,4284.00
2023-05-14T04:50:42.692Z,4308.00
2023-05-14T04:51:42.717Z,4484.00
2023-05-14T04:52:42.813Z,6360.00
2023-05-14T04:53:42.769Z,9728.00
2023-05-14T04:54:42.840Z,10084.00
2023-05-14T04:55:42.821Z,7476.00
2023-05-14T04:56:42.849Z,7092.00
2023-05-14T04:57:42.878Z,7112.00
2023-05-14T04:58:42.921Z,6064.00
2023-05-14T04:59:42.940Z,5528.00
2023-05-14T05:00:42.955Z,6560.00
2023-05-14T05:01:43.021Z,7112.00
2023-05-14T05:02:43.026Z,5904.00
2023-05-14T05:03:43.079Z,5764.00
2023-05-14T05:04:43.065Z,6392.00
2023-05-14T05:05:43.092Z,6444.00
2023-05-14T05:06:43.119Z,6412.00
2023-05-14T05:07:43.156Z,6328.00
2023-05-14T05:08:43.259Z,6304.00
2023-05-14T05:09:43.209Z,6288.00
2023-05-14T05:10:43.237Z,6180.00
2023-05-14T05:11:43.255Z,6044.00
2023-05-14T05:12:43.291Z,6156.00
2023-05-14T05:13:43.316Z,6436.00
2023-05-14T05:14:43.355Z,7084.00
2023-05-14T05:15:43.426Z,6796.00
2023-05-14T05:16:43.389Z,7528.00
2023-05-14T05:17:43.477Z,7564.00
2023-05-14T05:18:43.504Z,6596.00
2023-05-14T05:19:44.506Z,6452.00
2023-05-14T05:20:43.496Z,6524.00
2023-05-14T05:21:43.524Z,6584.00
2023-05-14T05:22:43.552Z,6660.00
2023-05-14T05:23:43.586Z,6964.00
2023-05-14T05:24:43.623Z,7056.00
2023-05-14T05:25:43.636Z,6920.00
2023-05-14T05:26:43.661Z,7192.00
2023-05-14T05:27:43.696Z,7632.00
2023-05-14T05:28:43.720Z,7364.00
2023-05-14T05:29:43.739Z,7340.00
2023-05-14T05:30:43.766Z,7404.00
2023-05-14T05:31:43.824Z,7432.00
2023-05-14T05:32:43.860Z,8440.00
2023-05-14T05:33:43.851Z,10152.00
2023-05-14T05:34:43.875Z,10776.00
2023-05-14T05:35:43.904Z,12728.00
2023-05-14T05:36:43.926Z,11184.00
2023-05-14T05:37:43.955Z,8448.00
2023-05-14T05:38:43.983Z,8140.00
2023-05-14T05:39:44.022Z,8256.00
2023-05-14T05:40:44.058Z,8416.00
2023-05-14T05:41:44.061Z,8680.00
2023-05-14T05:42:44.088Z,8936.00
2023-05-14T05:43:44.120Z,9040.00
2023-05-14T05:44:44.140Z,9236.00
2023-05-14T05:45:44.180Z,9500.00
2023-05-14T05:46:44.237Z,11200.00
2023-05-14T05:47:44.274Z,21792.00
2023-05-14T05:48:44.264Z,31296.00
2023-05-14T05:49:44.277Z,37152.00
2023-05-14T05:50:44.340Z,48256.00
2023-05-14T05:51:44.352Z,60096.00
2023-05-14T05:52:44.381Z,66720.00
2023-05-14T05:53:47.033Z,67712.00
2023-05-14T05:58:27.080Z,50432.00
2023-05-14T05:59:27.089Z,49696.00
2023-05-14T06:00:27.341Z,54208.00
2023-05-14T06:01:27.162Z,57024.00
2023-05-14T06:02:27.242Z,56480.00
2023-05-14T06:03:29.830Z,65504.00
2023-05-14T06:04:27.253Z,65696.00
2023-05-14T06:05:27.296Z,55328.00
2023-05-14T06:06:27.298Z,66688.00
2023-05-14T06:07:27.334Z,65504.00
2023-05-14T06:08:27.358Z,68992.00
2023-05-14T06:09:27.390Z,64512.00
2023-05-14T06:10:28.235Z,70080.00
2023-05-14T06:11:27.460Z,68512.00
2023-05-14T06:12:27.494Z,60032.00
2023-05-14T06:13:28.048Z,68608.00
2023-05-14T06:14:27.804Z,68544.00
2023-05-14T06:16:15.225Z,62752.00
2023-05-14T06:17:15.189Z,64000.00
2023-05-14T06:18:15.220Z,63136.00
2023-05-14T06:19:16.329Z,53600.00
2023-05-14T06:21:22.898Z,52640.00
2023-05-14T06:22:23.140Z,37824.00
2023-05-14T06:23:22.985Z,34944.00
2023-05-14T06:24:22.998Z,39168.00
2023-05-14T06:25:23.053Z,37984.00
2023-05-14T06:32:59.187Z,71168.00
2023-05-14T06:33:58.196Z,75104.00
2023-05-14T06:34:58.438Z,74656.00
2023-05-14T06:35:58.265Z,77728.00
2023-05-14T06:36:58.306Z,78592.00
2023-05-14T06:37:58.337Z,78368.00
2023-05-14T06:38:58.406Z,75840.00
2023-05-14T06:39:58.423Z,76096.00
2023-05-14T06:40:58.445Z,71296.00
2023-05-14T06:41:58.474Z,69536.00
2023-05-14T06:42:58.513Z,70464.00
2023-05-14T06:43:58.542Z,73760.00
2023-05-14T06:44:58.626Z,72960.00
2023-05-14T06:46:41.174Z,72832.00
2023-05-14T06:47:41.242Z,70368.00
2023-05-14T06:48:41.333Z,74144.00
2023-05-14T06:49:41.295Z,75200.00
2023-05-14T06:50:41.315Z,76992.00
2023-05-14T06:51:41.354Z,75488.00
2023-05-14T06:52:41.384Z,75328.00
2023-05-14T06:53:41.449Z,73344.00
2023-05-14T06:56:24.082Z,72992.00
2023-05-14T06:57:24.093Z,70208.00
2023-05-14T06:58:24.735Z,72800.00
2023-05-14T06:59:24.582Z,74496.00
2023-05-14T07:01:24.292Z,74400.00
2023-05-14T07:02:24.291Z,75200.00
2023-05-14T07:04:24.421Z,79584.00
2023-05-14T07:08:35.004Z,76448.00
2023-05-14T07:09:22.108Z,77024.00
2023-05-14T07:10:22.541Z,79360.00
2023-05-14T07:12:22.249Z,75040.00
2023-05-14T07:15:22.530Z,78304.00
2023-05-14T07:16:22.380Z,78432.00
2023-05-14T07:17:22.516Z,74240.00
2023-05-14T07:18:22.461Z,71520.00
2023-05-14T07:19:22.480Z,67520.00
2023-05-14T07:20:23.018Z,73952.00
2023-05-14T07:21:22.570Z,77952.00
2023-05-14T07:22:22.610Z,75648.00
2023-05-14T07:24:22.678Z,75904.00
2023-05-14T07:25:22.925Z,72672.00
2023-05-14T07:26:23.784Z,75616.00
2023-05-14T07:29:10.405Z,70784.00
2023-05-14T07:30:10.446Z,74752.00
2023-05-14T07:32:10.929Z,72448.00
2023-05-14T07:35:03.385Z,66208.00
2023-05-14T07:36:03.653Z,67456.00
2023-05-14T07:37:06.269Z,70240.00
2023-05-14T07:38:03.489Z,71328.00
2023-05-14T07:39:03.732Z,74080.00
2023-05-14T07:40:03.588Z,74144.00
2023-05-14T08:11:50.610Z,66688.00
2023-05-14T08:12:50.638Z,66752.00
2023-05-14T08:13:50.686Z,69280.00
2023-05-14T08:14:50.718Z,70112.00
2023-05-14T08:16:58.546Z,64192.00
2023-05-14T08:17:58.455Z,63552.00
2023-05-14T08:18:58.487Z,64160.00
2023-05-14T08:19:58.485Z,65056.00
2023-05-14T08:20:58.527Z,65952.00
2023-05-14T08:21:58.581Z,64736.00
2023-05-14T08:22:58.649Z,66304.00
2023-05-14T08:23:58.675Z,67136.00
2023-05-14T08:24:58.690Z,64096.00
2023-05-14T08:25:58.732Z,65056.00
2023-05-14T08:26:58.996Z,65344.00
2023-05-14T08:27:58.813Z,67872.00
2023-05-14T08:28:58.852Z,63520.00
2023-05-14T08:29:58.898Z,58240.00
2023-05-14T08:30:58.986Z,63968.00
2023-05-14T08:32:00.326Z,64256.00
2023-05-14T08:32:59.034Z,61664.00
2023-05-14T08:34:00.683Z,62336.00
2023-05-14T08:34:59.112Z,62944.00
2023-05-14T08:35:59.150Z,61952.00
2023-05-14T08:37:41.738Z,61920.00
2023-05-14T08:38:41.785Z,60256.00
2023-05-14T08:39:41.839Z,58208.00
2023-05-14T08:41:42.531Z,58816.00
2023-05-14T09:37:04.888Z,15628.00
2023-05-14T09:38:04.897Z,15724.00
2023-05-14T09:39:04.940Z,15376.00
2023-05-14T09:40:05.035Z,14628.00
2023-05-14T09:41:05.024Z,14692.00
2023-05-14T09:42:05.051Z,14532.00
2023-05-14T09:43:05.098Z,14260.00
2023-05-14T09:44:06.749Z,14892.00
2023-05-14T09:45:05.182Z,15604.00
2023-05-14T09:46:05.218Z,16224.00
2023-05-14T09:47:05.328Z,16864.00
2023-05-14T09:49:05.324Z,17952.00
2023-05-14T09:51:05.396Z,19296.00
2023-05-14T09:52:06.047Z,19264.00
2023-05-14T09:53:05.484Z,19264.00
2023-05-14T09:54:05.518Z,18336.00
2023-05-14T09:55:05.900Z,17792.00
2023-05-14T09:56:05.806Z,16832.00
2023-05-14T09:58:05.870Z,15416.00
2023-05-14T09:59:05.705Z,15140.00
2023-05-14T10:00:05.774Z,15104.00
2023-05-14T10:01:06.033Z,14984.00
2023-05-14T10:04:06.099Z,13272.00
2023-05-14T10:06:06.625Z,12968.00
2023-05-14T10:07:06.203Z,12888.00
2023-05-14T10:08:06.038Z,12744.00
2023-05-14T10:09:06.105Z,12404.00
2023-05-14T10:11:06.154Z,12576.00
2023-05-14T10:12:06.380Z,12412.00
2023-05-14T10:13:06.226Z,12392.00
2023-05-14T10:14:06.465Z,12480.00
2023-05-14T10:16:06.338Z,12260.00
2023-05-14T10:17:06.441Z,12068.00
2023-05-14T10:18:06.451Z,11700.00
2023-05-14T10:19:06.544Z,11828.00
2023-05-14T10:20:06.475Z,11936.00
2023-05-14T10:25:49.501Z,12380.00
2023-05-14T10:26:49.516Z,11872.00
2023-05-14T10:27:49.571Z,12112.00
2023-05-14T10:28:49.603Z,12440.00
2023-05-14T10:29:49.624Z,12776.00
2023-05-14T10:31:32.254Z,13364.00
2023-05-14T10:32:35.160Z,13932.00
2023-05-14T10:33:32.289Z,13992.00
2023-05-14T10:34:33.771Z,13684.00
2023-05-14T10:36:33.611Z,9080.00
2023-05-14T10:37:32.436Z,9276.00
2023-05-14T10:40:33.568Z,8768.00
2023-05-14T10:42:32.850Z,8644.00
2023-05-14T10:43:32.876Z,8480.00
2023-05-14T10:44:32.694Z,8424.00
2023-05-14T10:45:32.722Z,8352.00
2023-05-14T10:46:33.002Z,8460.00
2023-05-14T10:47:32.824Z,8800.00
2023-05-14T10:49:42.705Z,9556.00
2023-05-14T10:50:32.918Z,9728.00
2023-05-14T10:51:32.986Z,10000.00
2023-05-14T10:52:32.987Z,10084.00
2023-05-14T10:53:33.004Z,9840.00
2023-05-14T10:54:33.043Z,10000.00
2023-05-14T10:56:33.119Z,9412.00
2023-05-14T10:57:33.347Z,10192.00
2023-05-14T10:58:33.191Z,7772.00
2023-05-14T10:59:33.225Z,6532.00
2023-05-14T11:01:33.301Z,6012.00
2023-05-14T11:02:33.586Z,5832.00
2023-05-14T11:03:33.358Z,5832.00
2023-05-14T11:06:41.717Z,7104.00
2023-05-14T11:07:41.456Z,7568.00
2023-05-14T11:08:43.080Z,7956.00
2023-05-14T11:15:22.575Z,7972.00
2023-05-14T11:16:23.944Z,7516.00
2023-05-14T11:18:22.651Z,7216.00
2023-05-14T11:19:22.893Z,6348.00
2023-05-14T11:21:22.828Z,4808.00
2023-05-14T11:23:22.827Z,4116.00
2023-05-14T11:24:22.862Z,3916.00
2023-05-14T11:26:22.950Z,3712.00
2023-05-14T11:28:23.796Z,4176.00
2023-05-14T11:29:23.329Z,4356.00
2023-05-14T11:31:23.155Z,4616.00
2023-05-14T11:32:23.451Z,4880.00
2023-05-14T11:37:23.281Z,6104.00
2023-05-14T11:38:26.340Z,6256.00
2023-05-14T11:39:23.340Z,6460.00
2023-05-14T11:40:23.573Z,6700.00
2023-05-14T11:41:23.573Z,7036.00
2023-05-14T11:42:23.440Z,7268.00
2023-05-14T11:43:23.470Z,7352.00
2023-05-14T11:44:23.508Z,7304.00
2023-05-14T11:45:23.555Z,7144.00
2023-05-14T11:46:23.601Z,6976.00
2023-05-14T11:47:23.623Z,6848.00
2023-05-14T11:48:23.636Z,6708.00
2023-05-14T11:49:23.673Z,6524.00
2023-05-14T11:50:24.073Z,6464.00
2023-05-14T11:51:23.754Z,6436.00
2023-05-14T11:52:23.770Z,6476.00
2023-05-14T11:53:23.800Z,6516.00
2023-05-14T11:54:23.839Z,6620.00
2023-05-14T11:55:23.859Z,6784.00
2023-05-14T11:56:24.097Z,7028.00
2023-05-14T11:57:23.945Z,7360.00
2023-05-14T11:58:24.487Z,7736.00
2023-05-14T11:59:24.015Z,8100.00
2023-05-14T12:00:24.359Z,8364.00
2023-05-14T12:01:24.064Z,8648.00
2023-05-14T12:02:24.174Z,8908.00
2023-05-14T12:04:24.201Z,9108.00
2023-05-14T12:05:24.200Z,9104.00
2023-05-14T12:06:25.952Z,9012.00
2023-05-14T12:08:24.497Z,8528.00
2023-05-14T12:10:24.575Z,8000.00
2023-05-14T12:13:25.778Z,8344.00
2023-05-14T12:14:24.992Z,8748.00
2023-05-14T12:15:24.733Z,9180.00
2023-05-14T12:16:26.142Z,9808.00
2023-05-14T12:18:25.343Z,10528.00
2023-05-14T12:23:24.809Z,12436.00
2023-05-14T12:26:24.888Z,11820.00
2023-05-14T12:27:25.722Z,10748.00
2023-05-14T12:28:24.951Z,10708.00
2023-05-14T12:31:26.007Z,10552.00
2023-05-14T12:33:25.825Z,10008.00
2023-05-14T12:35:25.348Z,9732.00
2023-05-14T12:36:25.201Z,9600.00
2023-05-14T12:37:25.233Z,9556.00
2023-05-14T12:38:25.265Z,9512.00
2023-05-14T12:39:25.321Z,9440.00
2023-05-14T12:40:25.715Z,9368.00
2023-05-14T12:41:25.374Z,9384.00
2023-05-14T12:42:25.399Z,9476.00
2023-05-14T12:43:25.432Z,9312.00
2023-05-14T12:44:25.471Z,9136.00
2023-05-14T12:45:25.704Z,9228.00
2023-05-14T12:46:25.545Z,8876.00
2023-05-14T12:49:28.201Z,8304.00
2023-05-14T12:50:28.242Z,8076.00
2023-05-14T12:51:28.271Z,9044.00
2023-05-14T12:53:28.331Z,7968.00
2023-05-14T12:54:28.414Z,7740.00
2023-05-14T12:55:28.410Z,7776.00
2023-05-14T12:56:28.522Z,7948.00
2023-05-14T12:57:28.669Z,8112.00
2023-05-14T12:58:28.511Z,8184.00
2023-05-14T12:59:28.530Z,8160.00
2023-05-14T13:00:28.567Z,8276.00
2023-05-14T13:01:28.633Z,8652.00
2023-05-14T13:02:28.668Z,9032.00
2023-05-14T13:03:28.664Z,9428.00
2023-05-14T13:04:28.836Z,9492.00
2023-05-14T13:05:28.737Z,9540.00
2023-05-14T13:06:28.777Z,9632.00
2023-05-14T13:07:28.801Z,9792.00
2023-05-14T13:08:28.830Z,10808.00
2023-05-14T13:09:28.875Z,10048.00
2023-05-14T13:10:28.924Z,10392.00
2023-05-14T13:11:28.929Z,9936.00
2023-05-14T13:12:28.971Z,9792.00
2023-05-14T13:13:28.995Z,9688.00
2023-05-14T13:14:29.035Z,9348.00
2023-05-14T13:15:29.062Z,9280.00
2023-05-14T13:16:29.121Z,9308.00
2023-05-14T13:17:29.156Z,9212.00
2023-05-14T13:18:29.186Z,9056.00
2023-05-14T13:19:29.198Z,8856.00
2023-05-14T13:20:29.243Z,8784.00
2023-05-14T13:21:29.269Z,8864.00
2023-05-14T13:22:29.313Z,8644.00
2023-05-14T13:23:29.342Z,8596.00
2023-05-14T13:24:29.375Z,8640.00
2023-05-14T13:25:29.392Z,8628.00
2023-05-14T13:26:29.453Z,8608.00
2023-05-14T13:27:29.473Z,8464.00
2023-05-14T13:28:29.532Z,8304.00
2023-05-14T13:29:29.568Z,8216.00
2023-05-14T13:30:29.771Z,8216.00
2023-05-14T13:32:29.693Z,8420.00
2023-05-14T13:33:29.675Z,8636.00
2023-05-14T13:34:29.698Z,8808.00
2023-05-14T13:35:29.753Z,8904.00
2023-05-14T13:37:29.786Z,8864.00
2023-05-14T13:38:30.349Z,8896.00
2023-05-14T13:39:29.869Z,8896.00
2023-05-14T13:40:29.916Z,8888.00
2023-05-14T13:41:29.923Z,8856.00
2023-05-14T13:42:29.980Z,8884.00
2023-05-14T13:44:30.033Z,9104.00
2023-05-14T13:45:30.072Z,9232.00
2023-05-14T13:46:30.201Z,9336.00
2023-05-14T13:47:30.150Z,8864.00
2023-05-14T13:48:30.152Z,8592.00
2023-05-14T13:49:30.205Z,8340.00
2023-05-14T13:50:30.220Z,8052.00
2023-05-14T13:51:30.279Z,7720.00
2023-05-14T13:52:30.289Z,7404.00
2023-05-14T13:53:30.741Z,7240.00
2023-05-14T13:54:30.366Z,7188.00
2023-05-14T13:55:30.604Z,7208.00
2023-05-14T13:56:30.418Z,7152.00
2023-05-14T13:57:34.511Z,7044.00
2023-05-14T14:00:30.541Z,7548.00
2023-05-14T14:01:30.963Z,7616.00
2023-05-14T14:02:31.780Z,7500.00
2023-05-14T14:04:30.672Z,6732.00
2023-05-14T14:06:30.754Z,6812.00
2023-05-14T14:08:31.346Z,6084.00
2023-05-14T14:10:30.867Z,6940.00
2023-05-14T14:11:30.903Z,7040.00
2023-05-14T14:13:30.991Z,6708.00
2023-05-14T14:15:50.688Z,6976.00
2023-05-14T14:16:31.120Z,6696.00
2023-05-14T14:20:31.210Z,6328.00
2023-05-14T14:21:31.242Z,6288.00
2023-05-14T14:22:31.371Z,6260.00
2023-05-14T14:23:31.521Z,6356.00
2023-05-14T14:24:31.344Z,6392.00
2023-05-14T14:25:31.662Z,6520.00
2023-05-14T14:26:31.617Z,6576.00
2023-05-14T14:27:31.440Z,6644.00
2023-05-14T14:28:31.685Z,7392.00
2023-05-14T14:29:32.918Z,6768.00
2023-05-14T14:31:32.194Z,6996.00
2023-05-14T14:32:31.821Z,7916.00
2023-05-14T14:34:31.971Z,8180.00
2023-05-14T14:36:31.736Z,8208.00
2023-05-14T14:39:31.821Z,8192.00
2023-05-14T14:41:31.888Z,7952.00
2023-05-14T14:42:32.326Z,7604.00
2023-05-14T14:44:32.908Z,7980.00
2023-05-14T14:45:32.745Z,8264.00
2023-05-14T14:48:32.522Z,7384.00
2023-05-14T14:49:32.467Z,7368.00
2023-05-14T14:52:32.556Z,7304.00
2023-05-14T14:54:33.229Z,7936.00
2023-05-14T14:55:32.325Z,7852.00
2023-05-14T14:56:32.780Z,7748.00
2023-05-14T15:04:33.063Z,6376.00
2023-05-14T15:08:33.593Z,5852.00
2023-05-14T15:09:32.787Z,6000.00
2023-05-14T15:11:32.854Z,6808.00
2023-05-14T15:15:18.823Z,6284.00
2023-05-14T15:20:19.306Z,5924.00
2023-05-14T15:25:55.015Z,6872.00
2023-05-14T15:26:55.041Z,6968.00
2023-05-14T15:27:55.082Z,7360.00
2023-05-14T15:28:56.112Z,7500.00
2023-05-14T15:33:55.667Z,7120.00
2023-05-14T15:36:55.354Z,6412.00
2023-05-14T15:37:55.585Z,5536.00
2023-05-14T15:58:56.072Z,5216.00
2023-05-14T16:01:56.166Z,5468.00
2023-05-14T16:05:56.486Z,5236.00
2023-05-14T16:06:56.325Z,5176.00
2023-05-14T16:09:56.615Z,5004.00
2023-05-14T16:11:56.683Z,5028.00
2023-05-14T16:14:56.797Z,5060.00
2023-05-14T16:28:32.819Z,4700.00
2023-05-14T16:29:32.842Z,4820.00
2023-05-14T16:30:32.900Z,4740.00
2023-05-14T16:31:33.128Z,4820.00
2023-05-14T16:32:32.975Z,4800.00
2023-05-14T16:33:32.971Z,4748.00
2023-05-14T16:35:33.656Z,4624.00
2023-05-14T16:38:33.128Z,4404.00
2023-05-14T16:39:33.366Z,4384.00
2023-05-14T16:40:33.199Z,4360.00
2023-05-14T16:41:33.222Z,4352.00
2023-05-14T17:20:48.564Z,3088.00
2023-05-14T17:31:48.706Z,2460.00
2023-05-14T17:40:51.319Z,2032.00
2023-05-14T17:44:54.635Z,1972.00
2023-05-14T17:45:54.427Z,1952.00
2023-05-14T18:00:10.819Z,1796.00
2023-05-14T18:01:10.904Z,1776.00
2023-05-14T18:02:10.863Z,1748.00
2023-05-14T18:03:12.048Z,1720.00
2023-05-14T18:04:11.041Z,1684.00
2023-05-14T18:05:11.159Z,1648.00
2023-05-14T18:06:11.194Z,1608.00
2023-05-14T18:07:11.025Z,1560.00
2023-05-14T18:08:11.066Z,1524.00
2023-05-14T18:09:11.121Z,1492.00
2023-05-14T18:10:11.127Z,1464.00
2023-05-14T18:11:11.181Z,1440.00
2023-05-14T18:12:11.198Z,1412.00
2023-05-14T18:13:11.430Z,1384.00
2023-05-14T18:14:11.657Z,1360.00
2023-05-14T18:15:12.713Z,1332.00
2023-05-14T18:16:11.437Z,1312.00
2023-05-14T18:18:11.675Z,1268.00
2023-05-14T18:24:11.576Z,1064.00
2023-05-14T18:25:11.592Z,1028.00
2023-05-14T18:26:11.621Z,988.00
2023-05-14T18:27:11.664Z,952.00
2023-05-14T18:28:11.694Z,916.00
2023-05-14T18:29:11.928Z,880.00
2023-05-14T18:30:12.753Z,844.00
2023-05-14T18:31:11.804Z,808.00
2023-05-14T18:32:11.819Z,780.00
2023-05-14T18:33:11.993Z,748.00
2023-05-14T18:35:06.490Z,708.00
2023-05-14T18:36:04.470Z,684.00
2023-05-14T18:37:04.495Z,656.00